sensor_id;sensor_type;location;lat;lon;timestamp;pressure;altitude;pressure_sealevel;temperature;humidity
57948;BME280;43754;56.992;24.292;2023-07-16T00:02:29;101550.84;;;15.48;95.28
57948;BME280;43754;56.992;24.292;2023-07-16T00:05:02;101547.50;;;15.46;95.19
57948;BME280;43754;56.992;24.292;2023-07-16T00:07:35;101548.84;;;15.35;95.13
57948;BME280;43754;56.992;24.292;2023-07-16T00:10:08;101554.03;;;15.37;94.10
57948;BME280;43754;56.992;24.292;2023-07-16T00:12:40;101554.25;;;15.35;94.22
57948;BME280;43754;56.992;24.292;2023-07-16T00:15:12;101552.41;;;15.36;93.46
57948;BME280;43754;56.992;24.292;2023-07-16T00:17:44;101554.44;;;15.34;93.83
57948;BME280;43754;56.992;24.292;2023-07-16T00:20:17;101557.78;;;15.36;95.43
57948;BME280;43754;56.992;24.292;2023-07-16T00:22:49;101556.19;;;15.41;94.08
57948;BME280;43754;56.992;24.292;2023-07-16T00:25:21;101556.97;;;15.35;93.29
57948;BME280;43754;56.992;24.292;2023-07-16T00:27:53;101561.53;;;15.35;94.19
57948;BME280;43754;56.992;24.292;2023-07-16T00:30:25;101565.41;;;15.32;94.40
57948;BME280;43754;56.992;24.292;2023-07-16T00:32:58;101573.63;;;15.24;94.87
57948;BME280;43754;56.992;24.292;2023-07-16T00:35:31;101570.88;;;15.17;95.79
57948;BME280;43754;56.992;24.292;2023-07-16T00:38:03;101565.19;;;15.12;95.95
57948;BME280;43754;56.992;24.292;2023-07-16T00:40:35;101576.47;;;15.16;96.23
57948;BME280;43754;56.992;24.292;2023-07-16T00:43:07;101570.44;;;15.14;95.77
57948;BME280;43754;56.992;24.292;2023-07-16T00:45:40;101573.13;;;15.14;96.30
57948;BME280;43754;56.992;24.292;2023-07-16T00:48:13;101571.06;;;15.16;96.93
57948;BME280;43754;56.992;24.292;2023-07-16T00:50:47;101570.03;;;15.17;97.60
57948;BME280;43754;56.992;24.292;2023-07-16T00:53:19;101563.72;;;15.10;96.63
57948;BME280;43754;56.992;24.292;2023-07-16T00:55:52;101562.03;;;15.09;96.57
57948;BME280;43754;56.992;24.292;2023-07-16T00:58:24;101562.03;;;15.09;95.57
57948;BME280;43754;56.992;24.292;2023-07-16T01:00:56;101560.38;;;15.08;96.43
57948;BME280;43754;56.992;24.292;2023-07-16T01:03:29;101573.03;;;15.07;95.52
57948;BME280;43754;56.992;24.292;2023-07-16T01:06:07;101568.19;;;15.03;97.09
57948;BME280;43754;56.992;24.292;2023-07-16T01:08:46;101558.63;;;15.00;97.91
57948;BME280;43754;56.992;24.292;2023-07-16T01:11:19;101557.78;;;15.00;97.65
57948;BME280;43754;56.992;24.292;2023-07-16T01:13:51;101562.53;;;14.98;97.73
57948;BME280;43754;56.992;24.292;2023-07-16T01:16:25;101554.56;;;14.90;96.96
57948;BME280;43754;56.992;24.292;2023-07-16T01:18:58;101551.69;;;14.77;98.05
57948;BME280;43754;56.992;24.292;2023-07-16T01:21:35;101553.81;;;14.66;98.47
57948;BME280;43754;56.992;24.292;2023-07-16T01:24:33;101558.19;;;14.67;99.52
57948;BME280;43754;56.992;24.292;2023-07-16T01:27:26;101549.44;;;14.65;98.29
57948;BME280;43754;56.992;24.292;2023-07-16T01:30:04;101548.41;;;14.66;100.00
57948;BME280;43754;56.992;24.292;2023-07-16T01:32:37;101543.69;;;14.68;100.00
57948;BME280;43754;56.992;24.292;2023-07-16T01:35:10;101542.84;;;14.68;100.00
57948;BME280;43754;56.992;24.292;2023-07-16T01:37:42;101545.16;;;14.71;100.00
57948;BME280;43754;56.992;24.292;2023-07-16T01:40:14;101546.66;;;14.73;100.00
57948;BME280;43754;56.992;24.292;2023-07-16T01:42:46;101550.72;;;14.69;99.71
57948;BME280;43754;56.992;24.292;2023-07-16T01:45:20;101539.13;;;14.69;100.00
57948;BME280;43754;56.992;24.292;2023-07-16T01:48:00;101545.31;;;14.69;100.00
57948;BME280;43754;56.992;24.292;2023-07-16T01:50:37;101553.44;;;14.69;100.00
57948;BME280;43754;56.992;24.292;2023-07-16T01:53:09;101545.31;;;14.69;100.00
57948;BME280;43754;56.992;24.292;2023-07-16T01:55:41;101539.75;;;14.71;100.00
57948;BME280;43754;56.992;24.292;2023-07-16T01:58:13;101536.50;;;14.76;100.00
57948;BME280;43754;56.992;24.292;2023-07-16T02:00:48;101534.19;;;14.72;100.00
57948;BME280;43754;56.992;24.292;2023-07-16T02:03:21;101535.88;;;14.73;100.00
57948;BME280;43754;56.992;24.292;2023-07-16T02:05:53;101527.66;;;14.67;100.00
57948;BME280;43754;56.992;24.292;2023-07-16T02:08:25;101529.13;;;14.69;100.00
57948;BME280;43754;56.992;24.292;2023-07-16T02:10:57;101531.03;;;14.69;100.00
57948;BME280;43754;56.992;24.292;2023-07-16T02:13:29;101528.88;;;14.64;100.00
57948;BME280;43754;56.992;24.292;2023-07-16T02:16:03;101529.13;;;14.69;100.00
57948;BME280;43754;56.992;24.292;2023-07-16T02:18:35;101531.09;;;14.76;100.00
57948;BME280;43754;56.992;24.292;2023-07-16T02:21:07;101527.56;;;14.75;100.00
57948;BME280;43754;56.992;24.292;2023-07-16T02:23:39;101530.25;;;14.75;100.00
57948;BME280;43754;56.992;24.292;2023-07-16T02:26:11;101531.38;;;14.81;100.00
57948;BME280;43754;56.992;24.292;2023-07-16T02:28:43;101522.78;;;14.92;100.00
57948;BME280;43754;56.992;24.292;2023-07-16T02:31:16;101531.63;;;15.00;99.88
57948;BME280;43754;56.992;24.292;2023-07-16T02:33:50;101530.88;;;15.06;98.50
57948;BME280;43754;56.992;24.292;2023-07-16T02:36:22;101538.97;;;15.06;99.70
57948;BME280;43754;56.992;24.292;2023-07-16T02:38:54;101530.22;;;15.04;99.44
57948;BME280;43754;56.992;24.292;2023-07-16T02:41:26;101531.97;;;15.12;99.31
57948;BME280;43754;56.992;24.292;2023-07-16T02:43:59;101529.81;;;15.22;98.46
57948;BME280;43754;56.992;24.292;2023-07-16T02:46:33;101529.28;;;15.33;97.93
57948;BME280;43754;56.992;24.292;2023-07-16T02:49:05;101520.69;;;15.44;98.52
57948;BME280;43754;56.992;24.292;2023-07-16T02:51:37;101532.69;;;15.56;97.77
57948;BME280;43754;56.992;24.292;2023-07-16T02:54:09;101539.38;;;15.60;96.73
57948;BME280;43754;56.992;24.292;2023-07-16T02:56:42;101546.00;;;15.58;95.24
57948;BME280;43754;56.992;24.292;2023-07-16T02:59:14;101545.81;;;15.59;96.17
57948;BME280;43754;56.992;24.292;2023-07-16T03:01:47;101538.97;;;15.63;96.21
57948;BME280;43754;56.992;24.292;2023-07-16T03:04:19;101534.59;;;15.62;96.26
57948;BME280;43754;56.992;24.292;2023-07-16T03:06:51;101545.00;;;15.65;96.71
57948;BME280;43754;56.992;24.292;2023-07-16T03:09:23;101544.84;;;15.67;96.71
57948;BME280;43754;56.992;24.292;2023-07-16T03:11:55;101542.72;;;15.62;96.37
57948;BME280;43754;56.992;24.292;2023-07-16T03:14:27;101547.34;;;15.69;96.27
57948;BME280;43754;56.992;24.292;2023-07-16T03:17:02;101546.56;;;15.75;96.21
57948;BME280;43754;56.992;24.292;2023-07-16T03:19:35;101541.22;;;15.81;95.35
57948;BME280;43754;56.992;24.292;2023-07-16T03:22:07;101540.84;;;15.84;94.91
57948;BME280;43754;56.992;24.292;2023-07-16T03:24:40;101537.56;;;15.89;94.96
57948;BME280;43754;56.992;24.292;2023-07-16T03:27:12;101551.94;;;15.96;94.40
57948;BME280;43754;56.992;24.292;2023-07-16T03:29:54;101538.88;;;15.99;94.22
57948;BME280;43754;56.992;24.292;2023-07-16T03:32:28;101536.81;;;16.01;94.25
57948;BME280;43754;56.992;24.292;2023-07-16T03:35:17;101538.50;;;16.02;94.52
57948;BME280;43754;56.992;24.292;2023-07-16T03:37:49;101540.63;;;16.07;94.29
57948;BME280;43754;56.992;24.292;2023-07-16T03:40:24;101532.72;;;16.12;93.89
57948;BME280;43754;56.992;24.292;2023-07-16T03:42:57;101534.47;;;16.20;93.66
57948;BME280;43754;56.992;24.292;2023-07-16T03:45:29;101529.50;;;16.23;92.93
57948;BME280;43754;56.992;24.292;2023-07-16T03:48:02;101529.59;;;16.71;91.50
57948;BME280;43754;56.992;24.292;2023-07-16T03:50:35;101524.91;;;18.19;83.60
57948;BME280;43754;56.992;24.292;2023-07-16T03:53:07;101523.66;;;19.43;76.59
57948;BME280;43754;56.992;24.292;2023-07-16T03:55:39;101520.91;;;20.24;72.64
57948;BME280;43754;56.992;24.292;2023-07-16T03:58:11;101524.75;;;20.78;69.49
57948;BME280;43754;56.992;24.292;2023-07-16T04:00:44;101522.53;;;20.86;68.48
57948;BME280;43754;56.992;24.292;2023-07-16T04:03:17;101530.25;;;20.35;69.59
57948;BME280;43754;56.992;24.292;2023-07-16T04:05:50;101519.03;;;20.25;70.13
57948;BME280;43754;56.992;24.292;2023-07-16T04:08:22;101511.72;;;20.80;67.18
57948;BME280;43754;56.992;24.292;2023-07-16T04:10:54;101513.41;;;21.29;66.08
57948;BME280;43754;56.992;24.292;2023-07-16T04:13:27;101521.34;;;21.72;64.55
57948;BME280;43754;56.992;24.292;2023-07-16T04:15:59;101525.47;;;22.04;62.36
57948;BME280;43754;56.992;24.292;2023-07-16T04:18:33;101523.22;;;22.36;61.04
57948;BME280;43754;56.992;24.292;2023-07-16T04:21:05;101526.25;;;22.63;60.33
57948;BME280;43754;56.992;24.292;2023-07-16T04:23:37;101524.72;;;22.78;59.01
57948;BME280;43754;56.992;24.292;2023-07-16T04:26:09;101521.84;;;22.85;58.60
57948;BME280;43754;56.992;24.292;2023-07-16T04:28:41;101523.81;;;23.01;58.25
57948;BME280;43754;56.992;24.292;2023-07-16T04:31:13;101520.13;;;23.07;57.41
57948;BME280;43754;56.992;24.292;2023-07-16T04:33:47;101525.75;;;23.17;57.00
57948;BME280;43754;56.992;24.292;2023-07-16T04:36:19;101516.44;;;23.30;56.74
57948;BME280;43754;56.992;24.292;2023-07-16T04:38:51;101516.69;;;23.57;56.23
57948;BME280;43754;56.992;24.292;2023-07-16T04:41:24;101515.44;;;23.48;56.89
57948;BME280;43754;56.992;24.292;2023-07-16T04:43:56;101512.41;;;23.77;56.04
57948;BME280;43754;56.992;24.292;2023-07-16T04:46:28;101505.59;;;23.80;55.25
57948;BME280;43754;56.992;24.292;2023-07-16T04:49:04;101506.41;;;23.97;54.89
57948;BME280;43754;56.992;24.292;2023-07-16T04:51:36;101497.97;;;24.15;54.34
57948;BME280;43754;56.992;24.292;2023-07-16T04:54:08;101499.13;;;24.19;54.56
57948;BME280;43754;56.992;24.292;2023-07-16T04:56:40;101497.75;;;24.39;54.42
57948;BME280;43754;56.992;24.292;2023-07-16T04:59:12;101499.03;;;24.53;53.26
57948;BME280;43754;56.992;24.292;2023-07-16T05:01:44;101503.13;;;24.72;53.81
57948;BME280;43754;56.992;24.292;2023-07-16T05:04:18;101497.06;;;24.70;53.18
57948;BME280;43754;56.992;24.292;2023-07-16T05:06:51;101496.69;;;24.83;52.04
57948;BME280;43754;56.992;24.292;2023-07-16T05:09:23;101498.81;;;24.98;51.52
57948;BME280;43754;56.992;24.292;2023-07-16T05:11:55;101488.34;;;24.95;51.68
57948;BME280;43754;56.992;24.292;2023-07-16T05:14:28;101486.19;;;25.24;50.67
57948;BME280;43754;56.992;24.292;2023-07-16T05:17:00;101486.56;;;25.32;50.11
57948;BME280;43754;56.992;24.292;2023-07-16T05:19:34;101483.47;;;25.24;50.19
57948;BME280;43754;56.992;24.292;2023-07-16T05:22:06;101485.78;;;25.37;49.83
57948;BME280;43754;56.992;24.292;2023-07-16T05:24:38;101483.69;;;25.49;49.73
57948;BME280;43754;56.992;24.292;2023-07-16T05:27:10;101486.66;;;25.69;50.51
57948;BME280;43754;56.992;24.292;2023-07-16T05:29:42;101477.44;;;25.85;49.29
57948;BME280;43754;56.992;24.292;2023-07-16T05:32:14;101476.34;;;26.23;47.91
57948;BME280;43754;56.992;24.292;2023-07-16T05:34:48;101469.41;;;26.16;48.28
57948;BME280;43754;56.992;24.292;2023-07-16T05:37:20;101468.41;;;26.27;48.06
57948;BME280;43754;56.992;24.292;2023-07-16T05:39:52;101463.19;;;26.25;47.47
57948;BME280;43754;56.992;24.292;2023-07-16T05:42:24;101461.56;;;26.29;47.68
57948;BME280;43754;56.992;24.292;2023-07-16T05:44:56;101463.53;;;26.44;46.51
57948;BME280;43754;56.992;24.292;2023-07-16T05:47:28;101468.63;;;26.67;46.85
57948;BME280;43754;56.992;24.292;2023-07-16T05:50:02;101454.38;;;26.85;45.54
57948;BME280;43754;56.992;24.292;2023-07-16T05:52:34;101449.50;;;27.13;46.46
57948;BME280;43754;56.992;24.292;2023-07-16T05:55:07;101447.06;;;27.47;45.26
57948;BME280;43754;56.992;24.292;2023-07-16T05:57:39;101457.53;;;27.29;44.13
57948;BME280;43754;56.992;24.292;2023-07-16T06:00:12;101440.72;;;27.21;43.60
57948;BME280;43754;56.992;24.292;2023-07-16T06:02:46;101443.72;;;27.19;44.17
57948;BME280;43754;56.992;24.292;2023-07-16T06:05:21;101443.19;;;27.22;43.12
57948;BME280;43754;56.992;24.292;2023-07-16T06:07:53;101437.69;;;27.32;44.55
57948;BME280;43754;56.992;24.292;2023-07-16T06:10:25;101443.22;;;27.48;43.15
57948;BME280;43754;56.992;24.292;2023-07-16T06:12:57;101444.59;;;27.45;42.82
57948;BME280;43754;56.992;24.292;2023-07-16T06:15:29;101442.91;;;27.39;44.11
57948;BME280;43754;56.992;24.292;2023-07-16T06:18:01;101443.47;;;27.31;43.40
57948;BME280;43754;56.992;24.292;2023-07-16T06:20:35;101444.84;;;27.33;43.44
57948;BME280;43754;56.992;24.292;2023-07-16T06:23:07;101434.38;;;27.40;42.81
57948;BME280;43754;56.992;24.292;2023-07-16T06:25:39;101434.13;;;27.37;42.23
57948;BME280;43754;56.992;24.292;2023-07-16T06:28:12;101423.94;;;27.37;42.21
57948;BME280;43754;56.992;24.292;2023-07-16T06:30:44;101424.19;;;27.36;42.03
57948;BME280;43754;56.992;24.292;2023-07-16T06:33:16;101412.38;;;27.20;42.05
57948;BME280;43754;56.992;24.292;2023-07-16T06:35:49;101410.97;;;27.23;41.63
57948;BME280;43754;56.992;24.292;2023-07-16T06:38:21;101409.91;;;27.34;41.90
57948;BME280;43754;56.992;24.292;2023-07-16T06:40:53;101412.38;;;27.61;42.14
57948;BME280;43754;56.992;24.292;2023-07-16T06:43:25;101401.06;;;27.72;41.74
57948;BME280;43754;56.992;24.292;2023-07-16T06:45:57;101403.25;;;27.90;41.95
57948;BME280;43754;56.992;24.292;2023-07-16T06:48:29;101404.91;;;27.92;42.30
57948;BME280;43754;56.992;24.292;2023-07-16T06:51:03;101403.25;;;27.96;40.60
57948;BME280;43754;56.992;24.292;2023-07-16T06:53:35;101399.94;;;27.94;40.72
57948;BME280;43754;56.992;24.292;2023-07-16T06:56:07;101400.22;;;27.82;41.03
57948;BME280;43754;56.992;24.292;2023-07-16T06:58:39;101393.31;;;27.89;39.48
57948;BME280;43754;56.992;24.292;2023-07-16T07:01:11;101388.13;;;27.78;39.38
57948;BME280;43754;56.992;24.292;2023-07-16T07:03:43;101388.91;;;27.94;39.52
57948;BME280;43754;56.992;24.292;2023-07-16T07:06:17;101393.56;;;27.98;39.25
57948;BME280;43754;56.992;24.292;2023-07-16T07:08:49;101389.41;;;28.06;40.04
57948;BME280;43754;56.992;24.292;2023-07-16T07:11:22;101389.41;;;28.21;39.92
57948;BME280;43754;56.992;24.292;2023-07-16T07:13:54;101388.59;;;28.20;39.60
57948;BME280;43754;56.992;24.292;2023-07-16T07:16:26;101379.78;;;28.08;38.96
57948;BME280;43754;56.992;24.292;2023-07-16T07:18:59;101379.50;;;28.10;39.17
57948;BME280;43754;56.992;24.292;2023-07-16T07:21:32;101395.78;;;28.16;38.89
57948;BME280;43754;56.992;24.292;2023-07-16T07:24:05;101390.53;;;28.15;38.13
57948;BME280;43754;56.992;24.292;2023-07-16T07:26:37;101388.59;;;28.15;38.95
57948;BME280;43754;56.992;24.292;2023-07-16T07:29:09;101383.00;;;28.30;38.81
57948;BME280;43754;56.992;24.292;2023-07-16T07:31:41;101381.94;;;28.26;38.50
57948;BME280;43754;56.992;24.292;2023-07-16T07:34:13;101371.91;;;28.51;38.79
57948;BME280;43754;56.992;24.292;2023-07-16T07:36:46;101377.31;;;28.76;38.13
57948;BME280;43754;56.992;24.292;2023-07-16T07:39:18;101364.88;;;28.68;37.40
57948;BME280;43754;56.992;24.292;2023-07-16T07:41:50;101377.53;;;28.85;38.60
57948;BME280;43754;56.992;24.292;2023-07-16T07:44:22;101370.13;;;28.80;37.14
57948;BME280;43754;56.992;24.292;2023-07-16T07:46:54;101373.50;;;28.62;37.14
57948;BME280;43754;56.992;24.292;2023-07-16T07:49:26;101368.97;;;28.81;37.46
57948;BME280;43754;56.992;24.292;2023-07-16T07:52:00;101353.38;;;29.05;37.25
57948;BME280;43754;56.992;24.292;2023-07-16T07:54:32;101351.09;;;29.12;36.70
57948;BME280;43754;56.992;24.292;2023-07-16T07:57:05;101353.47;;;28.90;36.48
57948;BME280;43754;56.992;24.292;2023-07-16T07:59:37;101356.25;;;28.85;36.27
57948;BME280;43754;56.992;24.292;2023-07-16T08:02:09;101353.00;;;28.78;36.09
57948;BME280;43754;56.992;24.292;2023-07-16T08:04:41;101344.72;;;28.78;36.36
57948;BME280;43754;56.992;24.292;2023-07-16T08:07:15;101342.00;;;29.12;36.37
57948;BME280;43754;56.992;24.292;2023-07-16T08:09:47;101341.72;;;29.13;36.78
57948;BME280;43754;56.992;24.292;2023-07-16T08:12:19;101344.72;;;29.17;36.95
57948;BME280;43754;56.992;24.292;2023-07-16T08:14:51;101335.00;;;29.19;36.34
57948;BME280;43754;56.992;24.292;2023-07-16T08:17:23;101328.38;;;29.20;36.04
57948;BME280;43754;56.992;24.292;2023-07-16T08:19:55;101319.22;;;29.30;36.51
57948;BME280;43754;56.992;24.292;2023-07-16T08:22:28;101321.69;;;29.32;35.45
57948;BME280;43754;56.992;24.292;2023-07-16T08:25:01;101320.22;;;29.39;36.82
57948;BME280;43754;56.992;24.292;2023-07-16T08:27:33;101318.47;;;29.48;35.74
57948;BME280;43754;56.992;24.292;2023-07-16T08:30:07;101317.38;;;29.49;35.72
57948;BME280;43754;56.992;24.292;2023-07-16T08:32:39;101305.34;;;29.64;35.83
57948;BME280;43754;56.992;24.292;2023-07-16T08:35:11;101305.03;;;29.65;35.86
57948;BME280;43754;56.992;24.292;2023-07-16T08:37:49;101311.63;;;29.69;35.51
57948;BME280;43754;56.992;24.292;2023-07-16T08:40:21;101296.59;;;29.81;36.00
57948;BME280;43754;56.992;24.292;2023-07-16T08:42:54;101299.63;;;30.03;35.38
57948;BME280;43754;56.992;24.292;2023-07-16T08:45:29;101295.75;;;29.80;35.61
57948;BME280;43754;56.992;24.292;2023-07-16T08:48:02;101298.44;;;29.85;35.45
57948;BME280;43754;56.992;24.292;2023-07-16T08:50:35;101292.44;;;30.02;35.93
57948;BME280;43754;56.992;24.292;2023-07-16T08:53:09;101287.03;;;30.15;34.78
57948;BME280;43754;56.992;24.292;2023-07-16T08:55:42;101285.09;;;30.16;35.64
57948;BME280;43754;56.992;24.292;2023-07-16T08:58:16;101278.81;;;30.29;35.82
57948;BME280;43754;56.992;24.292;2023-07-16T09:00:48;101276.56;;;30.31;35.22
57948;BME280;43754;56.992;24.292;2023-07-16T09:03:20;101275.09;;;30.39;35.12
57948;BME280;43754;56.992;24.292;2023-07-16T09:05:53;101275.31;;;30.42;34.77
57948;BME280;43754;56.992;24.292;2023-07-16T09:08:26;101277.03;;;30.57;34.97
57948;BME280;43754;56.992;24.292;2023-07-16T09:11:00;101275.78;;;30.49;35.16
57948;BME280;43754;56.992;24.292;2023-07-16T09:13:32;101280.84;;;30.61;34.80
57948;BME280;43754;56.992;24.292;2023-07-16T09:16:05;101273.84;;;30.50;35.76
57948;BME280;43754;56.992;24.292;2023-07-16T09:18:39;101267.09;;;30.56;34.52
57948;BME280;43754;56.992;24.292;2023-07-16T09:21:11;101253.50;;;30.59;36.61
57948;BME280;43754;56.992;24.292;2023-07-16T09:23:45;101255.94;;;30.80;35.99
57948;BME280;43754;56.992;24.292;2023-07-16T09:26:16;101257.66;;;30.76;35.25
57948;BME280;43754;56.992;24.292;2023-07-16T09:28:49;101257.44;;;30.72;34.81
57948;BME280;43754;56.992;24.292;2023-07-16T09:31:21;101249.16;;;30.72;35.33
57948;BME280;43754;56.992;24.292;2023-07-16T09:33:56;101252.28;;;30.66;34.68
57948;BME280;43754;56.992;24.292;2023-07-16T09:36:29;101235.13;;;30.82;36.38
57948;BME280;43754;56.992;24.292;2023-07-16T09:39:02;101235.66;;;30.98;35.72
57948;BME280;43754;56.992;24.292;2023-07-16T09:41:35;101230.19;;;30.79;34.82
57948;BME280;43754;56.992;24.292;2023-07-16T09:44:07;101236.38;;;30.90;34.76
57948;BME280;43754;56.992;24.292;2023-07-16T09:46:40;101239.41;;;31.07;35.70
57948;BME280;43754;56.992;24.292;2023-07-16T09:49:14;101243.72;;;30.99;34.64
57948;BME280;43754;56.992;24.292;2023-07-16T09:51:48;101236.50;;;30.98;34.98
57948;BME280;43754;56.992;24.292;2023-07-16T09:54:27;101249.47;;;31.03;35.08
57948;BME280;43754;56.992;24.292;2023-07-16T09:57:04;101234.19;;;31.06;34.81
57948;BME280;43754;56.992;24.292;2023-07-16T09:59:38;101233.69;;;31.17;35.03
57948;BME280;43754;56.992;24.292;2023-07-16T10:02:10;101231.94;;;31.08;35.07
57948;BME280;43754;56.992;24.292;2023-07-16T10:04:43;101222.72;;;31.12;35.27
57948;BME280;43754;56.992;24.292;2023-07-16T10:07:20;101235.22;;;31.10;35.35
57948;BME280;43754;56.992;24.292;2023-07-16T10:09:55;101237.72;;;30.92;35.31
57948;BME280;43754;56.992;24.292;2023-07-16T10:12:28;101243.50;;;30.77;35.93
57948;BME280;43754;56.992;24.292;2023-07-16T10:15:01;101228.38;;;30.88;35.83
57948;BME280;43754;56.992;24.292;2023-07-16T10:17:35;101210.13;;;30.87;35.53
57948;BME280;43754;56.992;24.292;2023-07-16T10:20:08;101206.03;;;30.98;35.04
57948;BME280;43754;56.992;24.292;2023-07-16T10:22:46;101216.47;;;31.34;35.34
57948;BME280;43754;56.992;24.292;2023-07-16T10:25:26;101210.31;;;31.50;35.47
57948;BME280;43754;56.992;24.292;2023-07-16T10:27:59;101214.94;;;31.69;34.34
57948;BME280;43754;56.992;24.292;2023-07-16T10:30:32;101203.56;;;31.70;35.02
57948;BME280;43754;56.992;24.292;2023-07-16T10:33:11;101203.75;;;31.87;34.40
57948;BME280;43754;56.992;24.292;2023-07-16T10:35:45;101186.06;;;31.97;34.43
57948;BME280;43754;56.992;24.292;2023-07-16T10:38:17;101187.19;;;32.10;34.65
57948;BME280;43754;56.992;24.292;2023-07-16T10:40:51;101187.50;;;32.08;35.24
57948;BME280;43754;56.992;24.292;2023-07-16T10:43:23;101187.38;;;32.13;34.94
57948;BME280;43754;56.992;24.292;2023-07-16T10:45:55;101177.41;;;31.99;34.39
57948;BME280;43754;56.992;24.292;2023-07-16T10:48:29;101171.19;;;31.93;34.64
57948;BME280;43754;56.992;24.292;2023-07-16T10:51:01;101160.75;;;31.76;35.18
57948;BME280;43754;56.992;24.292;2023-07-16T10:53:33;101166.75;;;31.56;35.39
57948;BME280;43754;56.992;24.292;2023-07-16T10:56:07;101169.28;;;31.25;35.48
57948;BME280;43754;56.992;24.292;2023-07-16T10:58:39;101149.84;;;30.84;35.84
57948;BME280;43754;56.992;24.292;2023-07-16T11:01:12;101156.78;;;30.68;36.36
57948;BME280;43754;56.992;24.292;2023-07-16T11:03:45;101158.59;;;30.59;35.83
57948;BME280;43754;56.992;24.292;2023-07-16T11:06:18;101154.72;;;30.60;36.40
57948;BME280;43754;56.992;24.292;2023-07-16T11:08:51;101154.22;;;30.72;35.74
57948;BME280;43754;56.992;24.292;2023-07-16T11:11:30;101156.41;;;30.88;36.06
57948;BME280;43754;56.992;24.292;2023-07-16T11:14:04;101149.88;;;31.12;36.34
57948;BME280;43754;56.992;24.292;2023-07-16T11:16:37;101142.91;;;31.28;36.14
57948;BME280;43754;56.992;24.292;2023-07-16T11:19:09;101155.84;;;31.32;35.51
57948;BME280;43754;56.992;24.292;2023-07-16T11:21:42;101138.38;;;31.32;35.57
57948;BME280;43754;56.992;24.292;2023-07-16T11:24:14;101141.53;;;31.52;34.70
57948;BME280;43754;56.992;24.292;2023-07-16T11:26:51;101131.69;;;31.74;34.74
57948;BME280;43754;56.992;24.292;2023-07-16T11:29:23;101128.31;;;31.99;33.65
57948;BME280;43754;56.992;24.292;2023-07-16T11:31:55;101127.84;;;32.19;33.97
57948;BME280;43754;56.992;24.292;2023-07-16T11:34:28;101135.53;;;32.45;34.64
57948;BME280;43754;56.992;24.292;2023-07-16T11:37:09;101142.03;;;32.40;34.15
57948;BME280;43754;56.992;24.292;2023-07-16T11:39:42;101138.19;;;32.27;34.88
57948;BME280;43754;56.992;24.292;2023-07-16T11:42:19;101124.19;;;32.32;33.59
57948;BME280;43754;56.992;24.292;2023-07-16T11:44:54;101121.19;;;32.43;33.71
57948;BME280;43754;56.992;24.292;2023-07-16T11:47:27;101114.69;;;32.25;33.48
57948;BME280;43754;56.992;24.292;2023-07-16T11:50:00;101107.97;;;32.04;34.01
57948;BME280;43754;56.992;24.292;2023-07-16T11:52:32;101117.53;;;32.11;34.32
57948;BME280;43754;56.992;24.292;2023-07-16T11:55:04;101115.34;;;32.22;34.36
57948;BME280;43754;56.992;24.292;2023-07-16T11:57:38;101115.25;;;32.13;34.18
57948;BME280;43754;56.992;24.292;2023-07-16T12:00:11;101117.13;;;32.04;33.80
57948;BME280;43754;56.992;24.292;2023-07-16T12:02:43;101109.34;;;31.92;34.46
57948;BME280;43754;56.992;24.292;2023-07-16T12:05:23;101113.03;;;32.02;34.56
57948;BME280;43754;56.992;24.292;2023-07-16T12:08:19;101103.59;;;32.25;34.43
57948;BME280;43754;56.992;24.292;2023-07-16T12:10:51;101095.28;;;32.25;34.57
57948;BME280;43754;56.992;24.292;2023-07-16T12:13:24;101096.78;;;32.31;34.70
57948;BME280;43754;56.992;24.292;2023-07-16T12:15:57;101088.97;;;32.33;34.31
57948;BME280;43754;56.992;24.292;2023-07-16T12:18:29;101085.41;;;32.41;34.55
57948;BME280;43754;56.992;24.292;2023-07-16T12:21:02;101074.72;;;32.26;34.57
57948;BME280;43754;56.992;24.292;2023-07-16T12:23:34;101081.47;;;32.11;35.30
57948;BME280;43754;56.992;24.292;2023-07-16T12:26:06;101070.97;;;31.86;35.38
57948;BME280;43754;56.992;24.292;2023-07-16T12:28:41;101069.66;;;31.83;35.99
57948;BME280;43754;56.992;24.292;2023-07-16T12:31:14;101066.53;;;31.63;35.66
57948;BME280;43754;56.992;24.292;2023-07-16T12:33:47;101065.22;;;31.60;36.21
57948;BME280;43754;56.992;24.292;2023-07-16T12:36:19;101058.53;;;31.61;36.38
57948;BME280;43754;56.992;24.292;2023-07-16T12:38:51;101062.75;;;31.59;36.09
57948;BME280;43754;56.992;24.292;2023-07-16T12:41:23;101062.13;;;31.62;36.22
57948;BME280;43754;56.992;24.292;2023-07-16T12:43:57;101053.19;;;31.65;35.91
57948;BME280;43754;56.992;24.292;2023-07-16T12:46:29;101040.81;;;31.84;36.12
57948;BME280;43754;56.992;24.292;2023-07-16T12:49:01;101045.47;;;31.98;37.06
57948;BME280;43754;56.992;24.292;2023-07-16T12:51:33;101042.19;;;31.95;35.98
57948;BME280;43754;56.992;24.292;2023-07-16T12:54:05;101044.59;;;31.88;36.05
57948;BME280;43754;56.992;24.292;2023-07-16T12:56:37;101046.72;;;31.91;36.92
57948;BME280;43754;56.992;24.292;2023-07-16T12:59:10;101034.91;;;31.86;36.23
57948;BME280;43754;56.992;24.292;2023-07-16T13:01:43;101034.09;;;31.85;36.53
57948;BME280;43754;56.992;24.292;2023-07-16T13:04:15;101036.00;;;31.76;36.47
57948;BME280;43754;56.992;24.292;2023-07-16T13:06:46;101030.63;;;31.58;36.65
57948;BME280;43754;56.992;24.292;2023-07-16T13:09:19;101028.38;;;31.46;37.20
57948;BME280;43754;56.992;24.292;2023-07-16T13:11:51;101028.88;;;31.48;37.17